Time;durP1;ratioP1;P1;durP2;ratioP2;P2;SDS_P1;SDS_P2;PMS_P1;PMS_P2;Temp;Humidity;BMP_temperature;BMP_pressure;BME280_temperature;BME280_humidity;BME280_pressure;Samples;Min_cycle;Max_cycle;Signal;HPM_P1;HPM_P2
2022/04/14 00:00:38;;;;;;;28.15;23.90;;;;;;;6.28;79.63;99488.34;2065322;28;20276;-70
2022/04/14 00:01:39;;;;;;;32.97;24.95;;;;;;;6.27;79.39;99492.84;2065825;28;20758;-70
2022/04/14 00:02:41;;;;;;;30.90;24.03;;;;;;;6.26;79.68;99491.25;2065826;28;20530;-70
2022/04/14 00:03:42;;;;;;;27.30;22.98;;;;;;;6.23;79.64;99487.25;2066016;28;20196;-70
2022/04/14 00:04:43;;;;;;;26.30;22.53;;;;;;;6.25;79.24;99487.00;2065144;28;20240;-69
2022/04/14 00:05:44;;;;;;;29.63;23.67;;;;;;;6.24;79.15;99485.41;2056823;28;20216;-69
2022/04/14 00:06:47;;;;;;;31.13;23.97;;;;;;;6.25;78.98;99494.94;2064944;28;20251;-70
2022/04/14 00:07:48;;;;;;;30.58;24.73;;;;;;;6.24;79.06;99490.69;2064643;28;20225;-69
2022/04/14 00:08:51;;;;;;;27.30;23.17;;;;;;;6.19;79.38;99480.88;2065053;28;20655;-70
2022/04/14 00:09:54;;;;;;;28.42;23.30;;;;;;;6.20;79.39;99487.78;2065004;28;20204;-70
2022/04/14 00:10:54;;;;;;;27.55;23.08;;;;;;;6.18;79.59;99484.59;2065239;28;20280;-70
2022/04/14 00:11:56;;;;;;;28.77;23.17;;;;;;;6.18;79.39;99484.59;2065743;28;20193;-70
2022/04/14 00:12:58;;;;;;;28.25;22.88;;;;;;;6.16;79.99;99484.03;2065806;28;20239;-69
2022/04/14 00:14:00;;;;;;;27.45;23.50;;;;;;;6.17;80.07;99483.00;2065061;28;20679;-70
2022/04/14 00:15:01;;;;;;;30.30;24.02;;;;;;;6.16;79.71;99481.38;2057210;28;20197;-69
2022/04/14 00:16:03;;;;;;;32.03;23.90;;;;;;;6.17;79.75;99488.31;2065422;28;20271;-70
2022/04/14 00:17:04;;;;;;;33.95;23.08;;;;;;;6.17;79.95;99476.91;2065780;28;20193;-70
2022/04/14 00:18:06;;;;;;;27.02;22.63;;;;;;;6.16;79.74;99481.38;2065137;28;20220;-70
2022/04/14 00:19:08;;;;;;;27.80;24.13;;;;;;;6.17;79.54;99479.56;2065091;28;20271;-70
2022/04/14 00:20:11;;;;;;;26.15;23.33;;;;;;;6.15;79.95;99471.84;2073140;28;20192;-69
2022/04/14 00:21:12;;;;;;;31.98;24.50;;;;;;;6.14;79.49;99478.19;2072638;28;20232;-70
2022/04/14 00:22:14;;;;;;;29.98;24.23;;;;;;;6.15;79.71;99477.13;2073450;28;20667;-69
2022/04/14 00:23:15;;;;;;;27.90;23.00;;;;;;;6.14;79.85;99474.75;2065754;28;20203;-70
2022/04/14 00:24:16;;;;;;;28.87;23.83;;;;;;;6.13;79.83;99476.59;2065719;28;20228;-69
2022/04/14 00:25:18;;;;;;;30.60;23.15;;;;;;;6.11;80.38;99476.06;2065815;28;20197;-70
2022/04/14 00:26:20;;;;;;;28.30;23.23;;;;;;;6.08;80.48;99471.28;2065703;28;20221;-70
2022/04/14 00:27:21;;;;;;;32.25;23.30;;;;;;;6.09;81.03;99477.38;2065732;28;20200;-69
2022/04/14 00:28:23;;;;;;;34.87;23.43;;;;;;;6.08;81.10;99471.28;2064875;28;20288;-69
2022/04/14 00:29:24;;;;;;;30.40;23.35;;;;;;;6.06;81.96;99464.63;2057053;28;20521;-69
2022/04/14 00:30:26;;;;;;;30.37;23.93;;;;;;;6.08;82.50;99465.16;2065327;28;20668;-68
2022/04/14 00:31:26;;;;;;;30.38;23.45;;;;;;;6.07;82.71;99464.38;2073161;28;20208;-69
2022/04/14 00:32:28;;;;;;;30.60;23.97;;;;;;;6.08;82.29;99473.13;2073250;28;20191;-68
2022/04/14 00:33:29;;;;;;;31.23;24.45;;;;;;;6.08;82.39;99471.28;2065024;28;20253;-68
2022/04/14 00:34:32;;;;;;;32.73;24.40;;;;;;;6.04;81.85;99459.59;2057042;28;20233;-68
2022/04/14 00:35:33;;;;;;;31.80;23.55;;;;;;;6.05;82.13;99466.50;2056953;28;20208;-69
2022/04/14 00:36:35;;;;;;;30.43;24.40;;;;;;;6.05;81.50;99476.28;2056744;28;20304;-68
2022/04/14 00:37:35;;;;;;;29.95;24.05;;;;;;;6.03;81.69;99468.59;2065152;28;20201;-69
2022/04/14 00:38:37;;;;;;;30.57;24.27;;;;;;;6.03;81.59;99462.50;2064970;28;20197;-68
2022/04/14 00:39:39;;;;;;;31.85;23.67;;;;;;;6.04;82.05;99472.03;2056995;28;20592;-69
2022/04/14 00:40:44;;;;;;;29.08;23.48;;;;;;;6.04;82.07;99469.41;2065276;28;20220;-69
2022/04/14 00:41:46;;;;;;;26.88;23.13;;;;;;;6.02;82.04;99467.00;2064595;28;20228;-68
2022/04/14 00:42:47;;;;;;;30.13;23.98;;;;;;;6.01;81.98;99473.38;2057075;28;20284;-68
2022/04/14 00:43:51;;;;;;;34.47;25.33;;;;;;;5.99;82.47;99467.50;2056670;28;20753;-68
2022/04/14 00:44:53;;;;;;;34.05;24.83;;;;;;;5.98;82.50;99476.50;2065714;28;20189;-70
2022/04/14 00:45:53;;;;;;;32.58;25.52;;;;;;;5.99;82.54;99486.03;2066492;28;20623;-68
2022/04/14 00:46:56;;;;;;;30.37;25.07;;;;;;;5.97;82.90;99480.22;2058545;28;20225;-70
2022/04/14 00:47:58;;;;;;;31.02;24.48;;;;;;;5.96;83.23;99478.63;2058113;28;20206;-70
2022/04/14 00:49:01;;;;;;;36.05;24.48;;;;;;;5.94;83.63;99478.09;2066637;28;20195;-70
2022/04/14 00:50:03;;;;;;;29.60;24.17;;;;;;;5.91;84.04;99473.31;2066225;28;20240;-69
2022/04/14 00:51:06;;;;;;;30.08;24.13;;;;;;;5.90;84.91;99469.81;2058212;28;20196;-68
2022/04/14 00:52:08;;;;;;;31.08;24.83;;;;;;;5.89;86.93;99468.22;2066962;28;20197;-69
2022/04/14 00:53:09;;;;;;;37.88;24.75;;;;;;;5.88;86.87;99460.53;2074578;28;20196;-69
2022/04/14 00:54:11;;;;;;;34.57;25.00;;;;;;;5.86;87.17;99462.63;2067115;28;20201;-68
2022/04/14 00:55:13;;;;;;;32.30;24.75;;;;;;;5.87;87.69;99464.22;2067187;28;20435;-69
2022/04/14 00:56:17;;;;;;;34.38;24.98;;;;;;;5.86;88.04;99462.63;2067351;28;20189;-69
2022/04/14 00:57:18;;;;;;;31.33;25.20;;;;;;;5.88;88.47;99468.47;2074535;28;20694;-68
2022/04/14 00:58:20;;;;;;;32.20;25.73;;;;;;;5.84;89.20;99464.75;2066390;28;20205;-68
2022/04/14 00:59:20;;;;;;;36.38;25.98;;;;;;;5.85;89.25;99466.34;2058429;28;20201;-69
2022/04/14 01:00:22;;;;;;;37.67;24.87;;;;;;;5.83;89.57;99466.59;2066092;28;20300;-68
2022/04/14 01:01:24;;;;;;;35.20;25.77;;;;;;;5.82;90.11;99475.59;2074526;28;20275;-68
2022/04/14 01:02:25;;;;;;;39.40;26.98;;;;;;;5.80;90.42;99464.44;2074410;28;20302;-68
2022/04/14 01:03:26;;;;;;;33.95;26.05;;;;;;;5.83;90.72;99469.25;2074549;28;20201;-68
2022/04/14 01:04:28;;;;;;;36.10;26.37;;;;;;;5.81;90.94;99455.44;2066369;28;20197;-69
2022/04/14 01:05:29;;;;;;;33.53;25.90;;;;;;;5.81;90.94;99462.59;2058395;28;20572;-69
2022/04/14 01:06:31;;;;;;;35.13;26.90;;;;;;;5.79;90.81;99465.50;2066008;28;20225;-68
2022/04/14 01:07:36;;;;;;;33.00;26.38;;;;;;;5.79;90.78;99462.84;2066373;28;20189;-69
2022/04/14 01:08:39;;;;;;;35.15;26.23;;;;;;;5.78;90.61;99465.75;2066500;28;20271;-69
2022/04/14 01:09:41;;;;;;;35.85;26.05;;;;;;;5.78;90.94;99471.84;2065944;28;20204;-69
2022/04/14 01:10:44;;;;;;;32.88;25.05;;;;;;;5.73;90.81;99463.84;2058300;28;20225;-69
2022/04/14 01:11:47;;;;;;;37.35;26.30;;;;;;;5.73;90.94;99465.69;2066683;28;20196;-69
2022/04/14 01:12:49;;;;;;;32.70;25.00;;;;;;;5.72;91.64;99456.16;2067078;28;20244;-68
2022/04/14 01:13:49;;;;;;;33.15;25.25;;;;;;;5.70;92.04;99463.56;2067078;28;20197;-69
2022/04/14 01:14:53;;;;;;;32.30;26.07;;;;;;;5.68;92.15;99459.34;2066925;28;20197;-69
2022/04/14 01:15:58;;;;;;;38.88;26.52;;;;;;;5.66;92.03;99464.09;2065914;28;20225;-69
2022/04/14 01:17:02;;;;;;;35.22;26.13;;;;;;;5.65;92.70;99469.66;2066693;28;20193;-69
2022/04/14 01:18:03;;;;;;;38.08;26.50;;;;;;;5.64;92.31;99462.72;2067069;28;20197;-69
2022/04/14 01:19:04;;;;;;;40.00;26.50;;;;;;;5.64;92.35;99460.09;2066947;28;20195;-69
2022/04/14 01:20:08;;;;;;;36.28;26.88;;;;;;;5.61;91.68;99461.41;2067148;28;20193;-69
2022/04/14 01:21:09;;;;;;;32.58;27.35;;;;;;;5.61;91.84;99466.69;2066301;28;20651;-69
2022/04/14 01:22:16;;;;;;;34.15;26.23;;;;;;;5.61;91.55;99463.25;2066939;28;20205;-69
2022/04/14 01:23:21;;;;;;;34.10;26.88;;;;;;;5.60;91.98;99465.09;2066967;28;20188;-69
2022/04/14 01:24:23;;;;;;;36.20;27.02;;;;;;;5.58;91.47;99461.91;2066217;28;20560;-69
2022/04/14 01:25:25;;;;;;;35.63;26.45;;;;;;;5.55;92.06;99457.09;2066327;28;20239;-70
2022/04/14 01:26:26;;;;;;;33.95;25.48;;;;;;;5.58;92.21;99464.56;2074298;28;20196;-69
2022/04/14 01:27:30;;;;;;;36.83;26.47;;;;;;;5.57;91.58;99460.31;2066186;28;20259;-69
2022/04/14 01:28:31;;;;;;;35.17;25.88;;;;;;;5.58;91.73;99461.91;2058313;28;20774;-69
2022/04/14 01:29:33;;;;;;;30.27;24.63;;;;;;;5.58;90.84;99463.75;2066263;28;20259;-69
2022/04/14 01:30:36;;;;;;;35.50;25.95;;;;;;;5.59;91.05;99466.16;2074490;28;20435;-69
2022/04/14 01:31:38;;;;;;;35.92;26.17;;;;;;;5.57;90.77;99460.31;2066154;28;20629;-69
2022/04/14 01:32:38;;;;;;;36.95;26.25;;;;;;;5.59;90.25;99468.00;2058139;28;20193;-68
2022/04/14 01:33:40;;;;;;;33.17;25.87;;;;;;;5.58;89.99;99464.56;2058171;28;20198;-69
2022/04/14 01:34:41;;;;;;;33.63;26.45;;;;;;;5.58;90.31;99467.19;2066226;28;20212;-69
2022/04/14 01:35:43;;;;;;;30.53;25.07;;;;;;;5.60;89.98;99469.59;2074224;28;20192;-70
2022/04/14 01:36:45;;;;;;;32.05;25.10;;;;;;;5.58;90.27;99472.50;2073962;28;20224;-69
2022/04/14 01:37:47;;;;;;;34.25;24.90;;;;;;;5.61;89.88;99477.28;2066144;28;20296;-69
2022/04/14 01:38:48;;;;;;;31.52;25.73;;;;;;;5.61;89.64;99471.97;2066235;28;20271;-69
2022/04/14 01:39:51;;;;;;;30.70;24.90;;;;;;;5.61;89.49;99473.84;2066823;28;20193;-69
2022/04/14 01:40:51;;;;;;;39.33;25.63;;;;;;;5.61;89.62;99473.84;2066784;28;20189;-69
2022/04/14 01:41:53;;;;;;;34.47;26.03;;;;;;;5.60;89.68;99466.94;2066162;28;20263;-69
2022/04/14 01:42:56;;;;;;;32.08;25.45;;;;;;;5.60;89.07;99473.03;2066120;28;20271;-68
2022/04/14 01:43:59;;;;;;;36.83;25.60;;;;;;;5.58;89.31;99469.84;2066744;28;20196;-70
2022/04/14 01:45:01;;;;;;;33.10;25.95;;;;;;;5.58;89.69;99474.34;2066750;28;20193;-70
2022/04/14 01:46:08;;;;;;;33.22;25.85;;;;;;;5.57;89.76;99476.19;2066829;28;20189;-69
2022/04/14 01:47:09;;;;;;;29.98;25.42;;;;;;;5.57;89.72;99465.63;2065712;28;20296;-69
2022/04/14 01:48:10;;;;;;;36.93;25.93;;;;;;;5.53;89.65;99469.81;2066005;28;20205;-68
2022/04/14 01:49:12;;;;;;;33.65;25.70;;;;;;;5.55;89.38;99472.97;2074191;28;20732;-69
2022/04/14 01:50:18;;;;;;;31.77;24.95;;;;;;;5.55;89.47;99472.97;2066026;28;20201;-69
2022/04/14 01:51:20;;;;;;;35.63;25.75;;;;;;;5.53;89.49;99475.09;2065774;28;20252;-69
2022/04/14 01:52:22;;;;;;;34.13;25.10;;;;;;;5.55;88.89;99474.84;2066040;28;20181;-69
2022/04/14 01:53:23;;;;;;;33.30;24.77;;;;;;;5.55;88.98;99475.63;2058021;28;20249;-69
2022/04/14 01:54:24;;;;;;;37.70;24.63;;;;;;;5.55;88.36;99472.97;2057349;28;20202;-70
2022/04/14 01:55:26;;;;;;;31.80;25.40;;;;;;;5.55;88.45;99480.94;2057815;28;20224;-69
2022/04/14 01:56:28;;;;;;;37.13;25.02;;;;;;;5.53;88.14;99472.44;2066117;28;20196;-69
2022/04/14 01:57:30;;;;;;;31.48;24.60;;;;;;;5.51;88.72;99469.25;2066632;28;20250;-70
2022/04/14 01:58:32;;;;;;;35.35;25.73;;;;;;;5.50;89.83;99470.31;2066669;28;20193;-69
2022/04/14 01:59:33;;;;;;;31.65;25.20;;;;;;;5.47;89.82;99467.34;2066012;28;20193;-69
2022/04/14 02:00:34;;;;;;;31.17;25.02;;;;;;;5.46;90.47;99469.22;2066080;28;20276;-69
2022/04/14 02:01:35;;;;;;;32.50;25.52;;;;;;;5.42;90.42;99462.03;2065602;28;20205;-69
2022/04/14 02:02:37;;;;;;;35.80;26.10;;;;;;;5.41;90.78;99465.75;2065895;28;20687;-68
2022/04/14 02:03:38;;;;;;;34.08;25.92;;;;;;;5.38;90.81;99467.03;2074072;28;20192;-69
2022/04/14 02:04:42;;;;;;;33.53;25.00;;;;;;;5.35;90.97;99457.75;2066630;28;20193;-69
2022/04/14 02:05:43;;;;;;;32.50;25.10;;;;;;;5.35;90.62;99463.03;2066567;28;20322;-69
2022/04/14 02:06:45;;;;;;;34.05;25.23;;;;;;;5.33;90.29;99467.78;2066392;28;20217;-69
2022/04/14 02:07:46;;;;;;;36.63;24.95;;;;;;;5.32;90.41;99462.75;2066615;28;20207;-70
2022/04/14 02:08:48;;;;;;;39.40;26.00;;;;;;;5.31;90.36;99467.25;2065408;28;20218;-69
2022/04/14 02:09:49;;;;;;;34.10;24.85;;;;;;;5.29;90.27;99466.69;2057944;28;20666;-69
2022/04/14 02:10:53;;;;;;;35.33;25.73;;;;;;;5.30;89.93;99470.13;2057816;28;20193;-69
2022/04/14 02:11:54;;;;;;;37.85;24.70;;;;;;;5.30;89.56;99475.41;2066018;28;20255;-69
2022/04/14 02:12:58;;;;;;;31.87;24.93;;;;;;;5.29;90.22;99468.53;2066781;28;20240;-68
2022/04/14 02:13:58;;;;;;;32.97;24.33;;;;;;;5.29;90.11;99473.81;2066747;28;20197;-69
2022/04/14 02:15:00;;;;;;;32.53;24.97;;;;;;;5.27;89.97;99471.44;2065844;28;20197;-69
2022/04/14 02:16:01;;;;;;;31.90;25.00;;;;;;;5.26;89.76;99469.03;2065971;28;20201;-70
2022/04/14 02:17:07;;;;;;;33.90;25.37;;;;;;;5.27;89.79;99473.28;2065746;28;20738;-68
2022/04/14 02:18:09;;;;;;;34.00;25.52;;;;;;;5.20;89.70;99462.09;2065998;28;20181;-68
2022/04/14 02:19:11;;;;;;;33.55;25.38;;;;;;;5.27;89.37;99471.44;2066470;28;20237;-69
2022/04/14 02:20:13;;;;;;;30.83;24.33;;;;;;;5.27;89.24;99474.06;2066463;28;20192;-69
2022/04/14 02:21:14;;;;;;;35.45;25.75;;;;;;;5.27;89.60;99475.91;2066083;28;20230;-70
2022/04/14 02:22:16;;;;;;;34.83;25.10;;;;;;;5.25;89.14;99476.19;2066519;28;20235;-70
2022/04/14 02:23:17;;;;;;;32.00;25.38;;;;;;;5.25;89.21;99475.38;2065164;28;21009;-69
2022/04/14 02:24:20;;;;;;;33.67;24.60;;;;;;;5.22;89.64;99463.47;2065862;28;20656;-69
2022/04/14 02:25:24;;;;;;;35.47;24.08;;;;;;;5.21;89.54;99469.81;2066616;28;20610;-69
2022/04/14 02:26:28;;;;;;;34.53;25.42;;;;;;;5.20;91.09;99464.75;2066480;28;20190;-69
2022/04/14 02:27:29;;;;;;;30.52;24.38;;;;;;;5.17;92.39;99463.41;2066501;28;20263;-69
2022/04/14 02:28:30;;;;;;;35.23;26.23;;;;;;;5.16;93.59;99461.00;2066291;28;20229;-69
2022/04/14 02:29:31;;;;;;;40.35;26.40;;;;;;;5.13;94.04;99462.31;2066390;28;20193;-69
2022/04/14 02:30:33;;;;;;;31.10;25.60;;;;;;;5.11;94.06;99461.75;2065711;28;20730;-70
2022/04/14 02:31:34;;;;;;;31.40;25.48;;;;;;;5.07;94.25;99450.88;2057777;28;20569;-70
2022/04/14 02:32:36;;;;;;;36.87;26.33;;;;;;;5.04;94.70;99455.88;2065936;28;20207;-69
2022/04/14 02:33:37;;;;;;;33.55;25.27;;;;;;;5.02;94.93;99453.47;2066372;28;20527;-69
2022/04/14 02:34:39;;;;;;;35.05;24.77;;;;;;;5.00;94.95;99457.41;2065664;28;20221;-69
2022/04/14 02:35:40;;;;;;;34.80;25.60;;;;;;;4.97;95.02;99458.72;2065792;28;20200;-69
2022/04/14 02:36:42;;;;;;;32.03;24.95;;;;;;;4.97;94.68;99455.28;2064879;28;20296;-68
2022/04/14 02:37:42;;;;;;;34.08;24.35;;;;;;;4.94;94.78;99459.19;2057735;28;20240;-68
2022/04/14 02:38:45;;;;;;;37.80;25.07;;;;;;;4.93;95.99;99454.97;2065772;28;20197;-69
2022/04/14 02:39:48;;;;;;;36.13;25.85;;;;;;;4.90;96.17;99452.81;2073361;28;20213;-68
2022/04/14 02:40:50;;;;;;;33.70;24.33;;;;;;;4.89;96.88;99453.09;2065214;28;20759;-68
2022/04/14 02:41:52;;;;;;;35.13;24.92;;;;;;;4.85;97.31;99447.47;2065771;28;20683;-69
2022/04/14 02:42:56;;;;;;;36.92;25.45;;;;;;;4.84;96.66;99456.47;2065493;28;20221;-69
2022/04/14 02:43:57;;;;;;;36.35;25.40;;;;;;;4.83;96.92;99457.50;2065884;28;20201;-70
2022/04/14 02:44:59;;;;;;;39.93;26.03;;;;;;;4.82;97.79;99454.06;2065617;28;20217;-70
2022/04/14 02:46:00;;;;;;;35.88;25.23;;;;;;;4.81;98.02;99457.75;2065721;28;20200;-70
2022/04/14 02:47:02;;;;;;;34.55;26.23;;;;;;;4.84;97.20;99467.03;2066249;28;20185;-70
2022/04/14 02:48:02;;;;;;;34.50;25.60;;;;;;;4.82;96.66;99453.25;2065259;28;20586;-70
2022/04/14 02:49:04;;;;;;;31.77;25.30;;;;;;;4.83;96.88;99460.16;2057248;28;20256;-70
2022/04/14 02:50:06;;;;;;;36.55;26.00;;;;;;;4.80;96.55;99460.66;2065782;28;20551;-70
2022/04/14 02:51:08;;;;;;;35.30;25.92;;;;;;;4.79;97.29;99462.50;2064683;28;20197;-71
2022/04/14 02:52:11;;;;;;;32.70;25.55;;;;;;;4.80;97.29;99465.94;2065893;28;20178;-71
2022/04/14 02:53:15;;;;;;;33.85;24.77;;;;;;;4.77;96.99;99456.63;2065536;28;20212;-70
2022/04/14 02:54:16;;;;;;;34.90;25.25;;;;;;;4.74;97.40;99459.00;2065670;28;20266;-69
2022/04/14 02:55:19;;;;;;;32.77;24.60;;;;;;;4.73;98.23;99460.03;2066427;28;20197;-70
2022/04/14 02:56:20;;;;;;;33.25;25.60;;;;;;;4.72;97.54;99458.44;2066263;28;20220;-70
2022/04/14 02:57:23;;;;;;;35.10;25.77;;;;;;;4.69;97.44;99459.75;2065520;28;20200;-70
2022/04/14 02:58:23;;;;;;;35.97;26.20;;;;;;;4.66;98.12;99459.44;2057638;28;20256;-69
2022/04/14 02:59:27;;;;;;;44.50;27.20;;;;;;;4.64;98.66;99459.69;2057537;28;20751;-69
2022/04/14 03:00:31;;;;;;;36.95;25.90;;;;;;;4.63;99.17;99459.94;2064831;28;20691;-69
2022/04/14 03:01:34;;;;;;;41.38;25.83;;;;;;;4.61;99.80;99451.47;2065645;28;20205;-69
2022/04/14 03:02:35;;;;;;;35.15;25.48;;;;;;;4.57;100.00;99456.41;2066303;28;20192;-69
2022/04/14 03:03:36;;;;;;;36.27;25.37;;;;;;;4.52;100.00;99449.25;2066155;28;20656;-70
2022/04/14 03:04:37;;;;;;;36.55;25.98;;;;;;;4.50;100.00;99450.53;2065475;28;20200;-69
2022/04/14 03:05:39;;;;;;;35.40;26.23;;;;;;;4.45;100.00;99448.63;2057416;28;20206;-69
2022/04/14 03:06:41;;;;;;;40.70;26.85;;;;;;;4.43;100.00;99444.63;2065252;28;20607;-69
2022/04/14 03:07:43;;;;;;;37.65;26.05;;;;;;;4.39;100.00;99446.97;2072572;28;20196;-69
2022/04/14 03:08:45;;;;;;;38.63;26.15;;;;;;;4.35;100.00;99448.50;2073573;28;20203;-69
2022/04/14 03:09:47;;;;;;;40.92;27.73;;;;;;;4.34;100.00;99446.09;2066231;28;20192;-69
2022/04/14 03:10:47;;;;;;;35.95;27.40;;;;;;;4.33;100.00;99447.13;2065376;28;20213;-69
2022/04/14 03:11:49;;;;;;;43.13;26.53;;;;;;;4.30;100.00;99445.00;2065546;28;20275;-70
2022/04/14 03:12:55;;;;;;;36.53;27.25;;;;;;;4.27;100.00;99448.13;2066061;28;20201;-70
2022/04/14 03:13:56;;;;;;;41.05;27.42;;;;;;;4.26;100.00;99444.69;2066244;28;20636;-70
2022/04/14 03:14:59;;;;;;;37.08;26.75;;;;;;;4.24;100.00;99441.47;2065425;28;20719;-69
2022/04/14 03:16:00;;;;;;;37.53;26.15;;;;;;;4.23;100.00;99445.16;2057665;28;20205;-70
2022/04/14 03:17:01;;;;;;;37.37;27.37;;;;;;;4.21;100.00;99450.69;2065695;28;20284;-69
2022/04/14 03:18:02;;;;;;;39.88;27.48;;;;;;;4.21;100.00;99455.19;2065658;28;20201;-69
2022/04/14 03:19:04;;;;;;;39.23;26.10;;;;;;;4.19;100.00;99452.00;2065503;28;20213;-69
2022/04/14 03:20:07;;;;;;;40.92;27.10;;;;;;;4.16;100.00;99452.47;2066123;28;20193;-70
2022/04/14 03:21:12;;;;;;;39.83;26.33;;;;;;;4.13;100.00;99451.13;2064158;28;20204;-69
2022/04/14 03:22:14;;;;;;;47.85;27.58;;;;;;;4.08;100.00;99443.13;2057793;28;20193;-70
2022/04/14 03:23:16;;;;;;;38.70;26.58;;;;;;;4.09;100.00;99446.59;2065426;28;20224;-69
2022/04/14 03:24:17;;;;;;;38.47;26.92;;;;;;;4.08;100.00;99444.97;2073464;28;20201;-69
2022/04/14 03:25:19;;;;;;;35.23;25.90;;;;;;;4.06;100.00;99445.22;2065956;28;20196;-69
2022/04/14 03:26:19;;;;;;;38.53;26.38;;;;;;;4.04;100.00;99442.03;2065962;28;20200;-70
2022/04/14 03:27:21;;;;;;;36.37;27.10;;;;;;;4.02;100.00;99444.13;2066257;28;20276;-69
2022/04/14 03:28:24;;;;;;;38.47;26.05;;;;;;;4.03;100.00;99450.19;2065775;28;20229;-69
2022/04/14 03:29:32;;;;;;;40.13;27.27;;;;;;;3.98;100.00;99440.34;2065995;28;20190;-69
2022/04/14 03:30:34;;;;;;;41.35;27.88;;;;;;;3.98;100.00;99445.63;2065994;28;20264;-69
2022/04/14 03:31:34;;;;;;;44.90;28.15;;;;;;;3.95;100.00;99441.63;2065279;28;20208;-69
2022/04/14 03:32:40;;;;;;;39.70;26.97;;;;;;;3.94;100.00;99442.69;2064608;28;20200;-69
2022/04/14 03:33:42;;;;;;;36.22;26.20;;;;;;;3.91;100.00;99437.91;2072672;28;20212;-69
2022/04/14 03:34:43;;;;;;;35.17;25.95;;;;;;;3.88;100.00;99438.38;2073463;28;20189;-70
2022/04/14 03:35:46;;;;;;;39.60;26.13;;;;;;;3.88;100.00;99448.94;2065943;28;20195;-69
2022/04/14 03:36:48;;;;;;;36.67;27.80;;;;;;;3.87;100.00;99444.69;2073226;28;20797;-69
2022/04/14 03:37:48;;;;;;;41.20;27.75;;;;;;;3.84;100.00;99447.81;2065293;28;20230;-70
2022/04/14 03:38:50;;;;;;;41.83;27.37;;;;;;;3.83;100.00;99451.50;2065343;28;20268;-70
2022/04/14 03:39:51;;;;;;;41.53;27.42;;;;;;;3.80;100.00;99445.91;2065964;28;20284;-69
2022/04/14 03:40:52;;;;;;;43.57;27.90;;;;;;;3.79;100.00;99444.31;2066119;28;20278;-70
2022/04/14 03:41:55;;;;;;;44.00;28.23;;;;;;;3.77;100.00;99449.03;2066117;28;20200;-69
2022/04/14 03:42:58;;;;;;;38.45;26.35;;;;;;;3.74;100.00;99445.03;2065957;28;20243;-70
2022/04/14 03:44:00;;;;;;;46.65;28.52;;;;;;;3.73;100.00;99447.91;2065206;28;20667;-70
2022/04/14 03:45:01;;;;;;;39.05;26.80;;;;;;;3.72;100.00;99448.94;2065421;28;20208;-69
2022/04/14 03:46:03;;;;;;;41.38;27.80;;;;;;;3.69;100.00;99443.13;2065864;28;20295;-70
2022/04/14 03:47:05;;;;;;;40.75;27.65;;;;;;;3.69;100.00;99451.03;2065165;28;20204;-69
2022/04/14 03:48:08;;;;;;;40.90;27.02;;;;;;;3.69;100.00;99450.22;2065313;28;20223;-69
2022/04/14 03:49:11;;;;;;;41.20;28.02;;;;;;;3.67;100.00;99452.31;2066086;28;20191;-70
2022/04/14 03:50:13;;;;;;;40.42;27.30;;;;;;;3.66;100.00;99448.09;2065131;28;20205;-69
2022/04/14 03:51:14;;;;;;;38.22;27.52;;;;;;;3.67;100.00;99450.47;2056701;28;20228;-70
2022/04/14 03:52:16;;;;;;;42.85;28.40;;;;;;;3.65;100.00;99444.66;2065273;28;20188;-69
2022/04/14 03:53:17;;;;;;;39.25;29.10;;;;;;;3.65;100.00;99444.66;2065940;28;20196;-70
2022/04/14 03:54:19;;;;;;;41.87;27.50;;;;;;;3.64;100.00;99447.50;2065195;28;20228;-69
2022/04/14 03:55:20;;;;;;;43.67;28.75;;;;;;;3.64;100.00;99447.50;2057180;28;20951;-69
2022/04/14 03:56:22;;;;;;;41.42;28.27;;;;;;;3.63;100.00;99441.44;2065263;28;20189;-70
2022/04/14 03:57:24;;;;;;;39.90;28.73;;;;;;;3.60;100.00;99441.13;2073244;28;20573;-70
2022/04/14 03:58:26;;;;;;;45.30;28.85;;;;;;;3.60;100.00;99444.56;2073441;28;20566;-70
2022/04/14 03:59:28;;;;;;;46.15;30.02;;;;;;;3.60;100.00;99446.41;2064763;28;20271;-69
2022/04/14 04:00:29;;;;;;;41.80;28.75;;;;;;;3.59;100.00;99444.81;2057165;28;20252;-70
2022/04/14 04:01:30;;;;;;;40.95;27.98;;;;;;;3.56;100.00;99446.09;2065227;28;20196;-69
2022/04/14 04:02:35;;;;;;;44.27;28.93;;;;;;;3.57;100.00;99460.09;2065821;28;20212;-69
2022/04/14 04:03:37;;;;;;;44.97;27.80;;;;;;;3.56;100.00;99455.81;2064995;28;20213;-69
2022/04/14 04:04:39;;;;;;;44.05;27.77;;;;;;;3.53;100.00;99454.47;2057218;28;20260;-69
2022/04/14 04:05:40;;;;;;;43.80;27.90;;;;;;;3.55;100.00;99444.47;2065248;28;20197;-70
2022/04/14 04:06:42;;;;;;;39.23;28.40;;;;;;;3.56;100.00;99455.81;2072888;28;20244;-69
2022/04/14 04:07:44;;;;;;;41.15;27.42;;;;;;;3.57;100.00;99454.81;2064814;28;20313;-69
2022/04/14 04:08:44;;;;;;;40.85;27.48;;;;;;;3.56;100.00;99456.66;2065448;28;20201;-69
2022/04/14 04:09:47;;;;;;;36.27;27.37;;;;;;;3.59;100.00;99450.09;2064796;28;20727;-70
2022/04/14 04:10:49;;;;;;;40.65;28.27;;;;;;;3.58;100.00;99453.75;2065099;28;20255;-69
2022/04/14 04:11:51;;;;;;;41.50;28.25;;;;;;;3.60;100.00;99456.94;2057158;28;20201;-69
2022/04/14 04:12:51;;;;;;;40.38;27.90;;;;;;;3.61;100.00;99448.00;2065377;28;20514;-70
2022/04/14 04:13:53;;;;;;;43.60;28.97;;;;;;;3.61;100.00;99448.00;2065053;28;20193;-70
2022/04/14 04:14:55;;;;;;;39.65;27.80;;;;;;;3.63;100.00;99453.81;2056462;28;20209;-70
2022/04/14 04:15:57;;;;;;;39.83;27.92;;;;;;;3.63;100.00;99451.97;2065325;28;20197;-69
2022/04/14 04:16:58;;;;;;;41.60;28.30;;;;;;;3.65;100.00;99454.41;2065901;28;20201;-70
2022/04/14 04:18:04;;;;;;;47.55;28.20;;;;;;;3.64;100.00;99450.94;2065783;28;20660;-69
2022/04/14 04:19:05;;;;;;;40.15;28.15;;;;;;;3.67;100.00;99452.31;2066586;28;20192;-69
2022/04/14 04:20:08;;;;;;;42.23;27.93;;;;;;;3.67;100.00;99452.31;2074359;28;20200;-69
2022/04/14 04:21:08;;;;;;;41.08;27.35;;;;;;;3.65;100.00;99446.50;2066141;28;20201;-69
2022/04/14 04:22:10;;;;;;;42.97;27.60;;;;;;;3.67;100.00;99447.03;2067071;28;20181;-69
2022/04/14 04:23:13;;;;;;;36.17;26.90;;;;;;;3.69;100.00;99455.50;2067282;28;20561;-70
2022/04/14 04:24:16;;;;;;;42.55;27.05;;;;;;;3.70;100.00;99454.47;2066114;28;20201;-69
2022/04/14 04:25:18;;;;;;;37.53;26.70;;;;;;;3.70;100.00;99449.19;2066830;28;20264;-69
2022/04/14 04:26:18;;;;;;;38.53;27.58;;;;;;;3.73;100.00;99451.34;2066659;28;20686;-69
2022/04/14 04:27:20;;;;;;;37.50;27.30;;;;;;;3.75;100.00;99451.91;2066827;28;20547;-69
2022/04/14 04:28:21;;;;;;;39.20;26.13;;;;;;;3.79;100.00;99455.66;2067219;28;20216;-69
2022/04/14 04:29:22;;;;;;;37.47;26.43;;;;;;;3.79;100.00;99458.28;2067314;28;20224;-69
2022/04/14 04:30:29;;;;;;;40.50;27.50;;;;;;;3.82;100.00;99464.91;2067536;28;20200;-69
2022/04/14 04:31:34;;;;;;;42.28;27.08;;;;;;;3.84;100.00;99461.03;2067455;28;20185;-70
2022/04/14 04:32:36;;;;;;;42.72;27.85;;;;;;;3.84;100.00;99461.03;2065970;28;20212;-70
2022/04/14 04:33:36;;;;;;;40.67;27.33;;;;;;;3.89;100.00;99462.91;2066726;28;20552;-70
2022/04/14 04:34:38;;;;;;;39.33;27.13;;;;;;;3.89;100.00;99455.81;2067259;28;20276;-69
2022/04/14 04:35:41;;;;;;;41.28;26.80;;;;;;;3.90;100.00;99460.03;2066529;28;20297;-70
2022/04/14 04:36:44;;;;;;;38.25;26.92;;;;;;;3.94;100.00;99463.00;2065533;28;20232;-70
2022/04/14 04:37:45;;;;;;;43.97;28.38;;;;;;;3.95;100.00;99460.13;2066385;28;20212;-69
2022/04/14 04:38:47;;;;;;;36.87;26.57;;;;;;;3.97;100.00;99452.75;2074774;28;20678;-70
2022/04/14 04:39:50;;;;;;;39.47;27.17;;;;;;;4.00;100.00;99453.31;2067349;28;20193;-69
2022/04/14 04:40:52;;;;;;;43.70;26.23;;;;;;;4.02;100.00;99461.78;2066574;28;20291;-70
2022/04/14 04:41:53;;;;;;;38.15;26.67;;;;;;;4.04;100.00;99462.34;2066891;28;20208;-69
2022/04/14 04:42:56;;;;;;;36.27;26.33;;;;;;;4.07;100.00;99459.22;2065831;28;20762;-69
2022/04/14 04:43:57;;;;;;;38.65;26.60;;;;;;;4.08;100.00;99455.53;2066702;28;20205;-70
2022/04/14 04:45:00;;;;;;;37.45;27.25;;;;;;;4.10;100.00;99458.75;2066495;28;20204;-70
2022/04/14 04:46:03;;;;;;;41.92;27.88;;;;;;;4.12;100.00;99456.66;2058677;28;20205;-70
2022/04/14 04:47:05;;;;;;;41.88;26.88;;;;;;;4.16;100.00;99460.38;2066644;28;20193;-69